Time;durP1;ratioP1;P1;durP2;ratioP2;P2;SDS_P1;SDS_P2;PMS_P1;PMS_P2;Temp;Humidity;BMP_temperature;BMP_pressure;BME280_temperature;BME280_humidity;BME280_pressure;Samples;Min_cycle;Max_cycle;Signal;HPM_P1;HPM_P2
2024/02/27 00:00:12;;;;;;;10.48;6.00;;;;;;;4.15;85.93;94835.28;2098290;28;20037;-62
2024/02/27 00:01:13;;;;;;;10.70;6.00;;;;;;;4.15;85.65;94835.28;2098581;28;20036;-62
2024/02/27 00:02:15;;;;;;;13.50;6.95;;;;;;;4.15;85.77;94842.97;2098589;28;20039;-62
2024/02/27 00:03:16;;;;;;;13.00;7.65;;;;;;;4.16;86.25;94849.78;2098497;28;20397;-61
2024/02/27 00:04:17;;;;;;;9.48;4.88;;;;;;;4.16;85.73;94852.34;2098064;28;20059;-62
2024/02/27 00:05:19;;;;;;;10.48;6.65;;;;;;;4.16;85.84;94860.06;2097281;28;20059;-62
2024/02/27 00:06:20;;;;;;;12.07;6.80;;;;;;;4.18;85.76;94860.00;2098341;28;20059;-62
2024/02/27 00:07:23;;;;;;;14.10;6.72;;;;;;;4.16;85.64;94867.75;2098038;28;20051;-62
2024/02/27 00:08:24;;;;;;;11.23;6.85;;;;;;;4.18;85.74;94870.28;2097725;28;20480;-62
2024/02/27 00:09:26;;;;;;;12.20;6.57;;;;;;;4.17;85.89;94873.72;2097759;28;20053;-62
2024/02/27 00:10:27;;;;;;;13.52;8.82;;;;;;;4.18;86.23;94876.25;2097903;28;20064;-62
2024/02/27 00:11:29;;;;;;;11.20;7.22;;;;;;;4.14;86.06;94879.84;2098326;28;20040;-62
2024/02/27 00:12:30;;;;;;;11.57;7.60;;;;;;;4.15;86.25;94883.25;2097601;28;20045;-62
2024/02/27 00:13:32;;;;;;;13.00;7.70;;;;;;;4.16;86.11;94883.19;2097729;28;20052;-62
2024/02/27 00:14:33;;;;;;;13.13;7.03;;;;;;;4.13;86.38;94888.44;2098316;28;20503;-62
2024/02/27 00:15:34;;;;;;;13.77;8.27;;;;;;;4.10;86.38;94891.13;2097657;28;20059;-62
2024/02/27 00:16:35;;;;;;;13.80;8.00;;;;;;;4.12;86.41;94898.81;2097727;28;20056;-62
2024/02/27 00:17:36;;;;;;;12.35;7.72;;;;;;;4.12;87.00;94902.19;2098644;28;20393;-62
2024/02/27 00:18:37;;;;;;;11.55;7.93;;;;;;;4.11;86.53;94905.66;2098071;28;20066;-62
2024/02/27 00:19:38;;;;;;;11.43;7.68;;;;;;;4.05;87.29;94899.94;2097982;28;20044;-62
2024/02/27 00:20:40;;;;;;;11.82;7.55;;;;;;;4.02;87.37;94902.63;2098210;28;20041;-62
2024/02/27 00:21:41;;;;;;;14.00;7.60;;;;;;;4.01;87.47;94895.78;2098248;28;20048;-62
2024/02/27 00:22:42;;;;;;;13.32;7.85;;;;;;;4.03;87.55;94899.16;2097972;28;20515;-62
2024/02/27 00:23:43;;;;;;;13.40;7.28;;;;;;;4.04;87.36;94900.84;2097623;28;20055;-62
2024/02/27 00:24:44;;;;;;;11.38;7.65;;;;;;;4.03;87.25;94901.72;2098183;28;20067;-62
2024/02/27 00:25:45;;;;;;;13.05;8.25;;;;;;;4.02;87.67;94900.88;2098574;28;20044;-62
2024/02/27 00:26:46;;;;;;;12.88;8.00;;;;;;;4.00;87.96;94907.81;2098394;28;20035;-62
2024/02/27 00:27:47;;;;;;;13.63;7.05;;;;;;;3.99;87.79;94895.88;2098591;28;20047;-62
2024/02/27 00:28:48;;;;;;;12.45;7.80;;;;;;;3.98;87.92;94904.44;2097301;28;20049;-62
2024/02/27 00:29:49;;;;;;;13.50;8.25;;;;;;;3.98;88.22;94902.75;2098278;28;20043;-62
2024/02/27 00:30:51;;;;;;;12.63;6.85;;;;;;;4.00;88.26;94901.84;2097711;28;20052;-62
2024/02/27 00:31:52;;;;;;;12.02;7.43;;;;;;;3.97;88.46;94907.94;2098141;28;20052;-62
2024/02/27 00:32:53;;;;;;;12.82;7.75;;;;;;;3.98;88.17;94910.44;2098209;28;20048;-62
2024/02/27 00:33:54;;;;;;;15.48;7.70;;;;;;;3.98;88.25;94905.31;2097899;28;20083;-62
2024/02/27 00:34:55;;;;;;;14.63;7.90;;;;;;;3.94;88.81;94906.31;2099487;28;20056;-62
2024/02/27 00:35:56;;;;;;;14.60;8.23;;;;;;;3.95;88.93;94907.16;2100363;28;20043;-62
2024/02/27 00:36:57;;;;;;;11.80;7.35;;;;;;;3.93;88.85;94894.38;2100203;28;20067;-62
2024/02/27 00:37:58;;;;;;;12.57;8.38;;;;;;;3.96;88.67;94901.97;2099961;28;20028;-62
2024/02/27 00:38:59;;;;;;;12.98;8.20;;;;;;;3.92;89.23;94899.56;2099983;28;20048;-62
2024/02/27 00:40:00;;;;;;;12.38;7.13;;;;;;;3.90;89.15;94899.63;2099278;28;20373;-62
2024/02/27 00:41:03;;;;;;;13.32;8.80;;;;;;;3.91;89.21;94901.31;2098963;28;20072;-62
2024/02/27 00:42:04;;;;;;;11.85;7.68;;;;;;;3.90;89.16;94889.38;2099614;28;20044;-62
2024/02/27 00:43:05;;;;;;;13.65;8.48;;;;;;;3.89;89.51;94897.94;2099800;28;20059;-62
2024/02/27 00:44:07;;;;;;;15.45;7.20;;;;;;;3.90;89.42;94906.47;2098856;28;20051;-62
2024/02/27 00:45:08;;;;;;;12.73;7.90;;;;;;;3.90;89.89;94896.22;2099827;28;20036;-62
2024/02/27 00:46:09;;;;;;;12.73;8.23;;;;;;;3.90;89.71;94897.06;2099896;28;20044;-62
2024/02/27 00:47:10;;;;;;;14.82;8.40;;;;;;;3.88;89.99;94900.59;2099798;28;20040;-62
2024/02/27 00:48:11;;;;;;;13.48;8.68;;;;;;;3.86;89.88;94892.94;2099777;28;20036;-62
2024/02/27 00:49:13;;;;;;;14.93;9.10;;;;;;;3.87;90.16;94891.19;2099755;28;20048;-62
2024/02/27 00:50:14;;;;;;;14.38;8.82;;;;;;;3.85;90.53;94892.97;2100009;28;20433;-62
2024/02/27 00:51:15;;;;;;;14.02;8.38;;;;;;;3.81;91.11;94888.88;2099759;28;20488;-62
2024/02/27 00:52:16;;;;;;;13.35;7.38;;;;;;;3.79;90.88;94885.53;2099633;28;20041;-62
2024/02/27 00:53:19;;;;;;;13.90;8.25;;;;;;;3.77;91.35;94883.03;2099768;28;20040;-62
2024/02/27 00:54:20;;;;;;;13.90;8.48;;;;;;;3.75;91.37;94882.25;2099365;28;20053;-62
2024/02/27 00:55:21;;;;;;;14.65;8.18;;;;;;;3.75;91.53;94879.69;2099957;28;20044;-62
2024/02/27 00:56:23;;;;;;;14.80;8.93;;;;;;;3.76;92.06;94883.91;2098777;28;20044;-62
2024/02/27 00:57:24;;;;;;;16.08;8.50;;;;;;;3.76;91.85;94889.88;2090010;28;20052;-62
2024/02/27 00:58:26;;;;;;;15.93;9.57;;;;;;;3.75;91.98;94888.22;2091004;28;20413;-62
2024/02/27 00:59:27;;;;;;;13.43;7.90;;;;;;;3.76;91.76;94899.31;2099181;28;20075;-62
2024/02/27 01:00:28;;;;;;;16.08;9.13;;;;;;;3.75;92.33;94897.66;2099659;28;20047;-62
2024/02/27 01:01:29;;;;;;;14.48;8.50;;;;;;;3.73;92.31;94895.13;2099389;28;20063;-61
2024/02/27 01:02:30;;;;;;;13.85;8.52;;;;;;;3.75;92.33;94892.50;2099802;28;20084;-62
2024/02/27 01:03:31;;;;;;;14.95;10.20;;;;;;;3.71;92.23;94896.91;2098739;28;20047;-62
2024/02/27 01:04:33;;;;;;;14.75;9.23;;;;;;;3.68;92.54;94897.03;2098637;28;20052;-61
2024/02/27 01:05:34;;;;;;;16.17;9.05;;;;;;;3.69;92.53;94890.19;2099496;28;20056;-62
2024/02/27 01:06:35;;;;;;;14.60;8.75;;;;;;;3.69;92.44;94895.31;2099432;28;20041;-62
2024/02/27 01:07:36;;;;;;;13.73;8.68;;;;;;;3.69;92.49;94903.84;2100054;28;20036;-62
2024/02/27 01:08:38;;;;;;;14.10;8.18;;;;;;;3.68;92.32;94896.19;2099757;28;20045;-62
2024/02/27 01:09:39;;;;;;;16.83;9.68;;;;;;;3.70;92.43;94900.38;2099320;28;20052;-62
2024/02/27 01:10:40;;;;;;;15.40;8.82;;;;;;;3.68;92.25;94902.16;2099309;28;20048;-61
2024/02/27 01:11:42;;;;;;;15.35;9.30;;;;;;;3.66;92.10;94898.84;2099358;28;20403;-62
2024/02/27 01:12:43;;;;;;;16.27;9.63;;;;;;;3.64;92.50;94899.78;2098892;28;20063;-62
2024/02/27 01:13:44;;;;;;;14.85;9.10;;;;;;;3.69;92.22;94900.47;2099108;28;20049;-62
2024/02/27 01:14:45;;;;;;;12.90;8.93;;;;;;;3.65;92.55;94899.72;2099631;28;20037;-62
2024/02/27 01:15:46;;;;;;;16.02;9.80;;;;;;;3.67;92.63;94897.94;2098931;28;20377;-62
2024/02/27 01:16:47;;;;;;;15.95;9.55;;;;;;;3.71;92.42;94894.34;2098250;28;20055;-62
2024/02/27 01:17:48;;;;;;;13.63;9.30;;;;;;;3.73;92.15;94902.84;2098783;28;20059;-62
2024/02/27 01:18:49;;;;;;;16.42;9.30;;;;;;;3.68;92.29;94904.72;2099515;28;20043;-61
2024/02/27 01:19:51;;;;;;;15.00;9.57;;;;;;;3.67;91.91;94900.50;2099355;28;20059;-62
2024/02/27 01:20:52;;;;;;;17.88;10.45;;;;;;;3.68;91.93;94902.16;2090985;28;20064;-62
2024/02/27 01:21:57;;;;;;;15.57;9.05;;;;;;;3.66;92.13;94893.72;2098967;28;20037;-62
2024/02/27 01:22:58;;;;;;;16.45;9.82;;;;;;;3.65;92.35;94897.16;2099558;28;20391;-62
2024/02/27 01:23:59;;;;;;;16.60;9.55;;;;;;;3.66;92.16;94898.84;2099508;28;20032;-62
2024/02/27 01:25:00;;;;;;;14.30;8.63;;;;;;;3.66;91.82;94895.41;2099514;28;20041;-62
2024/02/27 01:26:02;;;;;;;16.33;8.63;;;;;;;3.64;91.67;94898.06;2099732;28;20043;-62
2024/02/27 01:27:04;;;;;;;16.25;10.18;;;;;;;3.67;91.97;94899.69;2098847;28;20053;-62
2024/02/27 01:28:05;;;;;;;13.82;8.98;;;;;;;3.68;91.60;94904.72;2098971;28;20503;-62
2024/02/27 01:29:07;;;;;;;16.35;9.70;;;;;;;3.64;91.25;94903.19;2099657;28;20036;-62
2024/02/27 01:30:09;;;;;;;16.17;9.23;;;;;;;3.63;91.33;94900.66;2099252;28;20056;-62
2024/02/27 01:31:10;;;;;;;16.65;10.07;;;;;;;3.67;91.75;94907.38;2099278;28;20059;-62
2024/02/27 01:32:11;;;;;;;15.68;9.43;;;;;;;3.67;91.62;94899.69;2099268;28;20059;-62
2024/02/27 01:33:12;;;;;;;16.52;9.68;;;;;;;3.66;91.54;94903.97;2099370;28;20048;-62
2024/02/27 01:34:13;;;;;;;14.07;9.20;;;;;;;3.64;91.28;94903.19;2099461;28;20040;-62
2024/02/27 01:35:18;;;;;;;13.70;8.77;;;;;;;3.61;91.29;94903.31;2099493;28;20033;-62
2024/02/27 01:36:19;;;;;;;14.02;8.70;;;;;;;3.61;91.68;94900.75;2099458;28;20044;-62
2024/02/27 01:37:20;;;;;;;14.45;9.75;;;;;;;3.59;91.74;94901.69;2099356;28;20527;-62
2024/02/27 01:38:21;;;;;;;15.18;9.20;;;;;;;3.61;91.68;94908.44;2099019;28;20047;-62
2024/02/27 01:39:22;;;;;;;14.27;8.75;;;;;;;3.63;91.42;94905.81;2099178;28;20049;-62
2024/02/27 01:40:24;;;;;;;17.58;9.77;;;;;;;3.65;91.15;94906.59;2098846;28;20051;-62
2024/02/27 01:41:25;;;;;;;17.50;9.02;;;;;;;3.64;90.85;94900.63;2098913;28;20055;-62
2024/02/27 01:42:27;;;;;;;15.02;8.63;;;;;;;3.64;91.20;94898.06;2099524;28;20045;-62
2024/02/27 01:43:31;;;;;;;16.23;8.57;;;;;;;3.61;90.88;94898.19;2098890;28;20406;-62
2024/02/27 01:44:32;;;;;;;15.15;9.27;;;;;;;3.61;91.13;94897.31;2099618;28;20028;-67
2024/02/27 01:45:33;;;;;;;14.18;8.40;;;;;;;3.60;91.41;94896.50;2098368;28;20059;-66
2024/02/27 01:46:34;;;;;;;14.63;8.30;;;;;;;3.58;90.74;94892.31;2098797;28;20412;-66
2024/02/27 01:47:36;;;;;;;15.65;8.63;;;;;;;3.58;91.01;94882.88;2099433;28;20041;-66
2024/02/27 01:48:37;;;;;;;14.55;9.10;;;;;;;3.58;91.06;94887.16;2090498;28;20428;-66
2024/02/27 01:49:38;;;;;;;17.30;9.60;;;;;;;3.56;90.61;94892.38;2090004;28;20052;-67
2024/02/27 01:50:42;;;;;;;16.77;9.48;;;;;;;3.56;91.37;94887.25;2099561;28;20047;-66
2024/02/27 01:51:44;;;;;;;15.63;9.45;;;;;;;3.60;91.03;94887.94;2099284;28;20412;-66
2024/02/27 01:52:45;;;;;;;18.23;9.85;;;;;;;3.59;90.74;94892.25;2081976;28;20042;-67
2024/02/27 01:53:49;;;;;;;16.00;9.90;;;;;;;3.58;90.96;94885.44;2081975;28;20049;-66
2024/02/27 01:54:51;;;;;;;14.55;9.15;;;;;;;3.60;91.03;94890.53;2082045;28;20056;-67
2024/02/27 01:55:52;;;;;;;13.23;8.35;;;;;;;3.55;90.97;94890.69;2081974;28;20525;-66
2024/02/27 01:56:53;;;;;;;14.77;9.35;;;;;;;3.57;90.96;94891.47;2089916;28;20045;-66
2024/02/27 01:57:54;;;;;;;15.02;9.70;;;;;;;3.60;90.96;94880.25;2090215;28;20049;-66
2024/02/27 01:58:55;;;;;;;17.77;8.85;;;;;;;3.58;90.59;94890.56;2082131;28;20053;-66
2024/02/27 01:59:56;;;;;;;18.45;9.77;;;;;;;3.54;90.83;94879.59;2082469;28;20513;-66
2024/02/27 02:00:57;;;;;;;15.93;9.85;;;;;;;3.57;90.58;94888.91;2090712;28;20029;-66
2024/02/27 02:01:59;;;;;;;16.60;8.70;;;;;;;3.56;91.04;94888.97;2099051;28;20051;-66
2024/02/27 02:03:01;;;;;;;14.63;7.97;;;;;;;3.51;90.03;94891.72;2090475;28;20033;-68
2024/02/27 02:04:03;;;;;;;17.40;9.93;;;;;;;3.53;90.41;94890.75;2090464;28;20041;-65
2024/02/27 02:05:05;;;;;;;16.23;8.43;;;;;;;3.53;89.97;94901.03;2090273;28;20049;-66
2024/02/27 02:06:06;;;;;;;16.42;9.98;;;;;;;3.53;90.12;94892.50;2089721;28;20064;-65
2024/02/27 02:07:07;;;;;;;17.90;10.00;;;;;;;3.52;89.96;94890.81;2098839;28;20044;-66
2024/02/27 02:08:08;;;;;;;15.75;9.07;;;;;;;3.51;90.01;94901.97;2099237;28;20041;-67
2024/02/27 02:09:10;;;;;;;15.23;9.48;;;;;;;3.52;89.96;94896.75;2090582;28;20448;-65
2024/02/27 02:10:14;;;;;;;16.45;8.80;;;;;;;3.52;89.98;94894.19;2090365;28;20044;-66
2024/02/27 02:11:15;;;;;;;18.30;10.20;;;;;;;3.50;90.34;94898.56;2098929;28;20051;-67
2024/02/27 02:12:16;;;;;;;16.10;9.50;;;;;;;3.49;90.11;94907.16;2089904;28;20511;-66
2024/02/27 02:13:17;;;;;;;15.35;8.73;;;;;;;3.48;89.55;94897.78;2090075;28;20041;-66
2024/02/27 02:14:19;;;;;;;16.92;9.57;;;;;;;3.47;89.33;94896.09;2090060;28;20056;-66
2024/02/27 02:15:20;;;;;;;18.20;9.50;;;;;;;3.48;89.37;94902.09;2080965;28;20068;-66
2024/02/27 02:16:21;;;;;;;17.20;9.68;;;;;;;3.52;89.19;94891.63;2073811;28;20429;-66
2024/02/27 02:17:22;;;;;;;16.45;9.10;;;;;;;3.47;89.29;94898.66;2081204;28;20045;-66
2024/02/27 02:18:23;;;;;;;15.13;9.32;;;;;;;3.50;89.35;94893.44;2099383;28;20056;-68
2024/02/27 02:19:24;;;;;;;16.05;10.20;;;;;;;3.47;89.02;94898.66;2099116;28;20507;-66
2024/02/27 02:20:25;;;;;;;15.13;8.80;;;;;;;3.46;89.31;94898.75;2098445;28;20036;-67
2024/02/27 02:21:26;;;;;;;16.63;8.57;;;;;;;3.46;88.91;94896.16;2099216;28;20040;-67
2024/02/27 02:22:28;;;;;;;17.55;10.32;;;;;;;3.43;89.23;94907.38;2098712;28;20052;-66
2024/02/27 02:23:29;;;;;;;16.63;9.73;;;;;;;3.40;89.39;94902.38;2099213;28;20048;-65
2024/02/27 02:24:30;;;;;;;17.63;10.15;;;;;;;3.38;89.69;94906.72;2098991;28;20044;-66
2024/02/27 02:25:32;;;;;;;16.08;9.68;;;;;;;3.41;89.11;94898.06;2090181;28;20407;-66
2024/02/27 02:26:33;;;;;;;18.15;9.15;;;;;;;3.35;89.33;94901.69;2089989;28;20045;-66
2024/02/27 02:27:35;;;;;;;15.32;9.55;;;;;;;3.37;89.59;94899.06;2089920;28;20052;-67
2024/02/27 02:28:36;;;;;;;18.27;8.50;;;;;;;3.35;89.06;94901.69;2090339;28;20045;-65
2024/02/27 02:29:38;;;;;;;15.20;9.40;;;;;;;3.35;89.05;94895.75;2098483;28;20041;-66
2024/02/27 02:30:39;;;;;;;16.13;7.93;;;;;;;3.33;89.25;94895.78;2098700;28;20049;-67
2024/02/27 02:31:40;;;;;;;15.85;8.15;;;;;;;3.27;89.45;94901.16;2099046;28;20409;-66
2024/02/27 02:32:50;;;;;;;18.15;10.50;;;;;;;3.31;89.35;94900.13;2099363;28;20041;-66
2024/02/27 02:33:52;;;;;;;16.63;9.95;;;;;;;3.31;89.30;94900.97;2098140;28;20400;-67
2024/02/27 02:34:53;;;;;;;15.85;9.13;;;;;;;3.33;88.61;94900.09;2098839;28;20049;-66
2024/02/27 02:35:54;;;;;;;19.85;10.95;;;;;;;3.32;89.10;94901.81;2098157;28;20048;-67
2024/02/27 02:36:55;;;;;;;17.23;8.65;;;;;;;3.31;89.16;94898.41;2098617;28;20045;-67
2024/02/27 02:37:56;;;;;;;15.68;10.20;;;;;;;3.30;88.72;94901.84;2098376;28;20040;-66
2024/02/27 02:38:57;;;;;;;15.48;9.55;;;;;;;3.29;88.83;94904.50;2099050;28;20040;-66
2024/02/27 02:39:59;;;;;;;17.58;10.38;;;;;;;3.30;89.02;94901.03;2089934;28;20374;-65
2024/02/27 02:41:00;;;;;;;18.75;10.57;;;;;;;3.30;88.63;94906.16;2090269;28;20056;-66
2024/02/27 02:42:02;;;;;;;14.63;8.95;;;;;;;3.26;89.17;94908.00;2098760;28;20408;-66
2024/02/27 02:43:03;;;;;;;16.75;8.90;;;;;;;3.26;88.78;94897.75;2098400;28;20044;-67
2024/02/27 02:44:05;;;;;;;16.48;9.00;;;;;;;3.26;88.52;94905.44;2098527;28;20407;-66
2024/02/27 02:45:06;;;;;;;16.00;10.50;;;;;;;3.25;88.75;94908.88;2098999;28;20037;-66
2024/02/27 02:46:07;;;;;;;15.57;9.80;;;;;;;3.22;89.10;94908.16;2098263;28;20047;-66
2024/02/27 02:47:08;;;;;;;18.75;10.80;;;;;;;3.24;89.25;94911.53;2098915;28;20039;-66
2024/02/27 02:48:10;;;;;;;18.35;9.70;;;;;;;3.24;88.93;94914.09;2098787;28;20059;-66
2024/02/27 02:49:11;;;;;;;17.63;9.63;;;;;;;3.23;89.04;94912.41;2098520;28;20209;-67
2024/02/27 02:50:13;;;;;;;17.60;9.88;;;;;;;3.23;89.05;94913.22;2098289;28;20044;-66
2024/02/27 02:51:14;;;;;;;17.80;9.88;;;;;;;3.25;88.88;94914.00;2098809;28;20052;-66
2024/02/27 02:52:15;;;;;;;19.17;9.50;;;;;;;3.20;88.82;94913.34;2098449;28;20041;-66
2024/02/27 02:53:17;;;;;;;18.80;11.20;;;;;;;3.22;89.20;94914.13;2098886;28;20032;-66
2024/02/27 02:54:18;;;;;;;16.02;9.93;;;;;;;3.25;89.23;94919.16;2098638;28;20048;-66
2024/02/27 02:55:19;;;;;;;16.33;9.20;;;;;;;3.24;88.83;94921.78;2098941;28;20029;-66
2024/02/27 02:56:20;;;;;;;18.98;10.40;;;;;;;3.22;88.92;94916.69;2098322;28;20057;-66
2024/02/27 02:57:21;;;;;;;15.73;8.85;;;;;;;3.22;88.84;94926.97;2098044;28;20048;-66
2024/02/27 02:58:22;;;;;;;17.95;11.05;;;;;;;3.22;88.88;94918.44;2098528;28;20032;-66
2024/02/27 02:59:25;;;;;;;18.15;10.60;;;;;;;3.21;88.71;94924.47;2098381;28;20071;-66
2024/02/27 03:00:26;;;;;;;19.08;10.48;;;;;;;3.23;89.09;94928.63;2098798;28;20040;-66
2024/02/27 03:01:27;;;;;;;21.00;11.00;;;;;;;3.22;89.52;94932.09;2098141;28;20059;-66
2024/02/27 03:02:30;;;;;;;18.65;11.57;;;;;;;3.25;88.78;94937.09;2098787;28;20067;-66
2024/02/27 03:03:31;;;;;;;18.55;10.23;;;;;;;3.23;88.52;94932.91;2097848;28;20059;-66
2024/02/27 03:04:32;;;;;;;17.13;10.45;;;;;;;3.18;89.16;94932.25;2098732;28;20047;-66
2024/02/27 03:05:34;;;;;;;17.80;10.70;;;;;;;3.17;89.49;94930.59;2098746;28;20059;-66
2024/02/27 03:06:35;;;;;;;17.15;10.98;;;;;;;3.20;89.25;94931.31;2097706;28;20059;-66
2024/02/27 03:07:36;;;;;;;17.48;10.82;;;;;;;3.17;88.90;94935.72;2089584;28;20056;-67
2024/02/27 03:08:37;;;;;;;15.15;8.40;;;;;;;3.17;88.57;94946.81;2089950;28;20514;-66
2024/02/27 03:09:38;;;;;;;18.48;9.82;;;;;;;3.14;89.18;94936.66;2098758;28;20032;-66
2024/02/27 03:10:39;;;;;;;18.98;10.02;;;;;;;3.14;89.33;94951.22;2098085;28;20048;-66
2024/02/27 03:11:40;;;;;;;16.90;10.00;;;;;;;3.15;89.41;94947.75;2098971;28;20040;-66
2024/02/27 03:12:42;;;;;;;18.20;10.85;;;;;;;3.11;89.09;94949.59;2098815;28;20040;-67
2024/02/27 03:13:45;;;;;;;18.08;10.55;;;;;;;3.07;89.40;94946.31;2098598;28;20400;-66
2024/02/27 03:14:46;;;;;;;19.67;10.43;;;;;;;3.09;89.63;94946.25;2098639;28;20045;-67
2024/02/27 03:15:47;;;;;;;18.38;9.32;;;;;;;3.10;89.37;94953.03;2098022;28;20075;-66
2024/02/27 03:16:48;;;;;;;20.85;12.15;;;;;;;3.12;89.10;94953.00;2098403;28;20051;-66
2024/02/27 03:17:49;;;;;;;19.80;10.70;;;;;;;3.12;88.71;94950.44;2081523;28;20037;-66
2024/02/27 03:18:50;;;;;;;17.60;10.18;;;;;;;3.08;89.17;94953.09;2081298;28;20056;-66
2024/02/27 03:19:51;;;;;;;18.23;10.60;;;;;;;3.08;89.21;94957.41;2098314;28;20055;-66
2024/02/27 03:20:53;;;;;;;19.20;11.60;;;;;;;3.10;89.02;94955.59;2099034;28;20047;-66
2024/02/27 03:21:56;;;;;;;17.27;10.05;;;;;;;3.06;89.15;94957.44;2098089;28;20063;-66
2024/02/27 03:22:57;;;;;;;17.35;10.85;;;;;;;3.06;89.37;94951.47;2098633;28;20032;-66
2024/02/27 03:23:58;;;;;;;18.67;9.32;;;;;;;3.05;89.25;94955.78;2098917;28;20032;-66
2024/02/27 03:25:04;;;;;;;18.70;11.13;;;;;;;3.04;89.41;94960.94;2098284;28;20044;-66
2024/02/27 03:26:05;;;;;;;17.00;9.55;;;;;;;3.05;89.21;94960.91;2098570;28;20043;-67
2024/02/27 03:27:06;;;;;;;19.42;10.60;;;;;;;3.04;89.39;94963.50;2098213;28;20055;-67
2024/02/27 03:28:07;;;;;;;18.67;10.70;;;;;;;3.06;88.85;94964.31;2097679;28;20036;-66
2024/02/27 03:29:08;;;;;;;23.02;11.48;;;;;;;3.06;88.82;94956.59;2098409;28;20048;-67
2024/02/27 03:30:11;;;;;;;21.58;11.93;;;;;;;3.07;89.21;94971.09;2098370;28;20476;-65
2024/02/27 03:31:12;;;;;;;20.75;11.60;;;;;;;3.06;89.00;94966.88;2098852;28;20045;-65
2024/02/27 03:32:13;;;;;;;20.75;11.65;;;;;;;3.04;89.41;94966.06;2098815;28;20044;-66
2024/02/27 03:33:14;;;;;;;22.70;13.07;;;;;;;3.02;89.59;94963.59;2098698;28;20106;-65
2024/02/27 03:34:16;;;;;;;18.70;10.65;;;;;;;3.05;89.07;94962.63;2099277;28;20055;-66
2024/02/27 03:35:17;;;;;;;22.77;11.32;;;;;;;3.01;89.79;94966.19;2100304;28;20051;-66
2024/02/27 03:36:18;;;;;;;20.23;10.38;;;;;;;3.00;89.27;94967.09;2098771;28;20048;-66
2024/02/27 03:37:19;;;;;;;23.08;11.35;;;;;;;3.02;89.43;94975.53;2098555;28;20063;-66
2024/02/27 03:38:20;;;;;;;19.17;10.88;;;;;;;3.02;89.15;94968.72;2098632;28;20040;-66
2024/02/27 03:39:21;;;;;;;24.00;11.30;;;;;;;2.99;89.37;94970.53;2098563;28;20396;-66
2024/02/27 03:40:22;;;;;;;19.10;11.02;;;;;;;2.99;89.55;94967.97;2098471;28;20067;-66
2024/02/27 03:41:25;;;;;;;21.75;10.70;;;;;;;2.98;89.15;94968.84;2098322;28;20055;-66
2024/02/27 03:42:26;;;;;;;20.85;10.77;;;;;;;3.00;89.45;94969.66;2098465;28;20041;-65
2024/02/27 03:43:28;;;;;;;21.25;12.32;;;;;;;3.02;89.65;94972.97;2098038;28;20476;-66
2024/02/27 03:44:29;;;;;;;24.08;12.00;;;;;;;2.99;89.37;94968.78;2098644;28;20496;-66
2024/02/27 03:45:30;;;;;;;20.83;12.25;;;;;;;3.01;89.57;94968.75;2098223;28;20036;-66
2024/02/27 03:46:31;;;;;;;20.08;11.50;;;;;;;3.03;89.27;94978.06;2098404;28;20051;-66
2024/02/27 03:47:32;;;;;;;20.90;11.43;;;;;;;3.02;89.40;94968.72;2098395;28;20516;-66
2024/02/27 03:48:33;;;;;;;19.83;10.48;;;;;;;3.02;89.44;94972.97;2098622;28;20040;-66
2024/02/27 03:49:34;;;;;;;17.92;10.10;;;;;;;2.98;89.34;94979.13;2097831;28;20463;-66
2024/02/27 03:50:35;;;;;;;20.85;10.75;;;;;;;3.01;89.52;94971.31;2097821;28;20040;-66
2024/02/27 03:51:37;;;;;;;21.45;11.30;;;;;;;3.01;89.58;94977.28;2099118;28;20036;-65
2024/02/27 03:52:38;;;;;;;20.92;11.75;;;;;;;3.01;89.34;94976.44;2098631;28;20374;-66
2024/02/27 03:53:39;;;;;;;22.80;10.85;;;;;;;3.04;89.50;94981.47;2098775;28;20040;-67
2024/02/27 03:54:40;;;;;;;25.25;12.43;;;;;;;2.99;89.67;94980.78;2099821;28;20051;-66
2024/02/27 03:55:41;;;;;;;23.95;13.20;;;;;;;2.99;89.89;94978.22;2098231;28;20397;-66
2024/02/27 03:56:42;;;;;;;24.48;11.75;;;;;;;2.96;89.78;94980.88;2097842;28;20086;-66
2024/02/27 03:57:43;;;;;;;22.40;11.65;;;;;;;2.97;89.85;94980.03;2098734;28;20040;-66
2024/02/27 03:58:46;;;;;;;21.08;12.35;;;;;;;2.97;89.73;94978.28;2098692;28;20040;-67
2024/02/27 03:59:47;;;;;;;24.10;12.38;;;;;;;2.96;89.83;94976.59;2098549;28;20037;-66
2024/02/27 04:00:48;;;;;;;22.35;12.90;;;;;;;2.97;89.60;94978.28;2097943;28;20047;-67
2024/02/27 04:01:52;;;;;;;23.70;12.30;;;;;;;2.97;89.85;94980.03;2097861;28;20053;-67
2024/02/27 04:02:53;;;;;;;25.20;12.38;;;;;;;2.96;90.13;94978.31;2098398;28;20504;-66
2024/02/27 04:03:54;;;;;;;23.85;13.52;;;;;;;2.98;90.18;94982.50;2098386;28;20472;-67
2024/02/27 04:04:56;;;;;;;23.05;12.15;;;;;;;2.98;89.78;94984.25;2098078;28;20056;-66
2024/02/27 04:05:57;;;;;;;22.27;11.98;;;;;;;2.98;89.87;94982.50;2098515;28;20055;-67
2024/02/27 04:06:58;;;;;;;25.08;12.30;;;;;;;2.94;89.97;94978.41;2098417;28;20036;-66
2024/02/27 04:07:59;;;;;;;21.73;13.38;;;;;;;2.95;90.33;94985.19;2098114;28;20048;-66
2024/02/27 04:09:01;;;;;;;26.55;12.57;;;;;;;2.98;90.07;94990.22;2098131;28;20024;-65
2024/02/27 04:10:02;;;;;;;25.25;14.18;;;;;;;2.95;90.03;94987.75;2098116;28;20123;-67
2024/02/27 04:11:04;;;;;;;24.30;12.27;;;;;;;2.91;90.52;94986.16;2099082;28;20040;-66
2024/02/27 04:12:05;;;;;;;23.23;12.32;;;;;;;2.87;90.68;94990.56;2099774;28;20404;-65
2024/02/27 04:13:06;;;;;;;25.45;13.20;;;;;;;2.94;90.69;94990.34;2099487;28;20037;-66
2024/02/27 04:14:07;;;;;;;22.77;12.65;;;;;;;2.95;90.52;94995.44;2098472;28;20043;-67
2024/02/27 04:15:08;;;;;;;20.98;12.10;;;;;;;2.95;90.67;94994.63;2098647;28;20055;-66
2024/02/27 04:16:10;;;;;;;24.23;12.80;;;;;;;2.93;90.27;94988.69;2097434;28;20044;-66
2024/02/27 04:17:11;;;;;;;24.95;12.63;;;;;;;2.91;90.31;94988.72;2089274;28;20477;-67
2024/02/27 04:18:12;;;;;;;23.55;11.88;;;;;;;2.91;90.45;94993.03;2088935;28;20055;-67
2024/02/27 04:19:13;;;;;;;26.33;13.68;;;;;;;2.92;90.33;94999.84;2097871;28;20056;-66
2024/02/27 04:20:14;;;;;;;23.40;13.45;;;;;;;2.88;90.86;94999.09;2098166;28;20052;-66
2024/02/27 04:21:15;;;;;;;24.80;14.48;;;;;;;2.88;90.65;94993.97;2098260;28;20053;-66
2024/02/27 04:22:16;;;;;;;24.65;14.35;;;;;;;2.91;91.01;94998.16;2098097;28;20416;-66
2024/02/27 04:23:17;;;;;;;25.40;12.55;;;;;;;2.90;90.55;94991.34;2098058;28;20071;-66
2024/02/27 04:24:18;;;;;;;23.27;12.82;;;;;;;2.90;90.74;95005.00;2098713;28;20040;-66
2024/02/27 04:25:19;;;;;;;23.65;11.00;;;;;;;2.92;90.53;95004.97;2098377;28;20473;-66
2024/02/27 04:26:21;;;;;;;27.55;15.05;;;;;;;2.90;91.08;95005.00;2097339;28;20036;-66
2024/02/27 04:27:22;;;;;;;25.15;12.75;;;;;;;2.88;90.85;95004.22;2098631;28;20048;-66
2024/02/27 04:28:23;;;;;;;27.20;13.85;;;;;;;2.87;91.18;95012.81;2097364;28;20552;-66
2024/02/27 04:29:24;;;;;;;23.65;12.75;;;;;;;2.85;90.95;95015.41;2098189;28;20047;-66
2024/02/27 04:30:25;;;;;;;23.15;13.07;;;;;;;2.84;91.08;95006.06;2098414;28;20052;-65
2024/02/27 04:31:26;;;;;;;22.35;11.25;;;;;;;2.86;91.18;95011.13;2098580;28;20392;-65
2024/02/27 04:32:27;;;;;;;23.05;12.15;;;;;;;2.87;91.40;95012.81;2097922;28;20057;-66
2024/02/27 04:33:28;;;;;;;31.42;15.43;;;;;;;2.83;91.21;95012.09;2097660;28;20056;-66
2024/02/27 04:34:29;;;;;;;23.20;13.55;;;;;;;2.85;91.59;95010.28;2097975;28;20055;-66
2024/02/27 04:35:31;;;;;;;24.50;13.38;;;;;;;2.88;91.21;95010.19;2098154;28;20052;-66
2024/02/27 04:36:32;;;;;;;25.70;14.48;;;;;;;2.90;91.39;95014.44;2098090;28;20116;-66
2024/02/27 04:37:33;;;;;;;28.15;12.52;;;;;;;2.86;91.41;95016.25;2098089;28;20067;-65
2024/02/27 04:38:34;;;;;;;23.95;11.68;;;;;;;2.83;91.58;95019.78;2098282;28;20040;-66
2024/02/27 04:39:35;;;;;;;27.20;15.27;;;;;;;2.82;91.99;95018.09;2098023;28;20052;-66
2024/02/27 04:40:37;;;;;;;23.92;12.07;;;;;;;2.85;91.73;95022.28;2098289;28;20043;-66
2024/02/27 04:41:38;;;;;;;25.42;13.02;;;;;;;2.83;91.69;95021.47;2098430;28;20512;-66
2024/02/27 04:42:40;;;;;;;25.25;13.52;;;;;;;2.81;91.90;95015.59;2098003;28;20048;-65
2024/02/27 04:43:44;;;;;;;26.73;14.15;;;;;;;2.80;92.25;95012.16;2088862;28;20045;-66
2024/02/27 04:44:45;;;;;;;27.63;13.68;;;;;;;2.82;92.13;95023.22;2089910;28;20041;-66
2024/02/27 04:45:46;;;;;;;22.95;12.07;;;;;;;2.82;92.05;95023.22;2098512;28;20050;-65
2024/02/27 04:46:48;;;;;;;27.92;14.98;;;;;;;2.80;92.23;95019.84;2098193;28;20052;-66